Time;durP1;ratioP1;P1;durP2;ratioP2;P2;SDS_P1;SDS_P2;PMS_P1;PMS_P2;Temp;Humidity;BMP_temperature;BMP_pressure;BME280_temperature;BME280_humidity;BME280_pressure;Samples;Min_cycle;Max_cycle;Signal;HPM_P1;HPM_P2
2021/11/19 00:00:21;;;;;;;10.65;4.60;;;12.30;99.90;;;;;;5056023;28;20047;-81
2021/11/19 00:02:46;;;;;;;9.60;3.92;;;12.30;99.90;;;;;;5053557;28;20044;-81
2021/11/19 00:05:12;;;;;;;4.15;2.80;;;12.30;99.90;;;;;;5056594;28;20101;-80
2021/11/19 00:07:38;;;;;;;5.60;3.47;;;12.30;99.90;;;;;;5054271;28;20136;-81
2021/11/19 00:10:07;;;;;;;8.57;3.92;;;12.30;99.90;;;;;;5042733;28;20068;-81
2021/11/19 00:12:33;;;;;;;5.93;3.17;;;12.20;99.90;;;;;;5054709;28;20517;-82
2021/11/19 00:14:58;;;;;;;13.00;3.40;;;12.20;99.90;;;;;;5030697;28;20049;-81
2021/11/19 00:17:24;;;;;;;4.95;3.60;;;12.20;99.90;;;;;;5040852;28;20086;-81
2021/11/19 00:19:50;;;;;;;5.95;3.95;;;12.20;99.90;;;;;;5039986;28;20078;-81
2021/11/19 00:22:18;;;;;;;5.78;3.95;;;12.20;99.90;;;;;;5045240;28;20055;-82
2021/11/19 00:24:45;;;;;;;5.15;3.40;;;12.10;99.90;;;;;;5053707;28;20040;-80
2021/11/19 00:27:14;;;;;;;6.70;3.00;;;12.10;99.90;;;;;;5064978;28;20363;-81
2021/11/19 00:29:41;;;;;;;8.85;3.33;;;12.10;99.90;;;;;;5059226;28;20076;-80
2021/11/19 00:32:08;;;;;;;5.13;3.13;;;12.10;99.90;;;;;;5059718;28;20036;-80
2021/11/19 00:34:33;;;;;;;7.18;4.40;;;12.10;99.90;;;;;;5062950;28;20040;-79
2021/11/19 00:37:00;;;;;;;9.77;4.43;;;12.10;99.90;;;;;;5058489;28;20037;-80
2021/11/19 00:39:26;;;;;;;6.40;3.65;;;12.10;99.90;;;;;;5064686;28;20486;-80
2021/11/19 00:41:53;;;;;;;7.95;2.28;;;12.00;99.90;;;;;;5053455;28;20040;-80
2021/11/19 00:44:20;;;;;;;5.93;2.75;;;12.00;99.90;;;;;;5064915;28;20036;-80
2021/11/19 00:46:48;;;;;;;9.95;3.55;;;12.00;99.90;;;;;;5066438;28;20090;-81
2021/11/19 00:49:16;;;;;;;3.65;3.08;;;12.00;99.90;;;;;;5059237;28;20050;-81
2021/11/19 00:51:45;;;;;;;3.92;2.90;;;12.10;99.90;;;;;;5067493;28;20040;-81
2021/11/19 00:54:12;;;;;;;10.30;3.83;;;12.00;99.90;;;;;;5057652;28;20083;-79
2021/11/19 00:56:43;;;;;;;12.25;3.22;;;12.00;99.90;;;;;;5070176;28;20075;-82
2021/11/19 00:59:10;;;;;;;8.20;4.22;;;12.00;99.90;;;;;;5049652;28;20040;-80
2021/11/19 01:01:41;;;;;;;5.90;3.40;;;12.10;99.90;;;;;;5052491;28;20037;-82
2021/11/19 01:04:09;;;;;;;4.28;2.45;;;12.10;99.90;;;;;;5058653;28;20759;-84
2021/11/19 01:06:35;;;;;;;10.40;3.08;;;12.10;99.90;;;;;;5038579;28;20048;-82
2021/11/19 01:09:05;;;;;;;9.43;3.13;;;12.10;99.90;;;;;;5061170;28;20481;-83
2021/11/19 01:11:31;;;;;;;8.32;3.70;;;12.10;99.90;;;;;;5056330;28;20100;-80
2021/11/19 01:14:00;;;;;;;5.07;2.45;;;12.10;99.90;;;;;;5073291;28;20044;-82
2021/11/19 01:16:32;;;;;;;6.47;2.80;;;12.10;99.90;;;;;;5055090;28;20042;-83
2021/11/19 01:19:02;;;;;;;6.03;2.08;;;12.00;99.90;;;;;;5041224;28;20102;-81
2021/11/19 01:21:39;;;;;;;3.38;2.35;;;12.00;99.90;;;;;;5057536;28;20052;-80
2021/11/19 01:24:05;;;;;;;;;;;12.00;99.90;;;;;;5056962;28;20049;-81
2021/11/19 01:26:35;;;;;;;5.33;2.93;;;12.00;99.90;;;;;;5041291;28;20388;-82
2021/11/19 01:29:06;;;;;;;6.35;2.58;;;12.10;99.90;;;;;;5055305;28;20136;-80
2021/11/19 01:31:48;;;;;;;3.90;3.00;;;12.10;99.90;;;;;;5058776;28;20040;-82
2021/11/19 01:34:14;;;;;;;5.00;2.58;;;12.20;99.90;;;;;;5046337;28;20044;-81
2021/11/19 01:36:40;;;;;;;7.57;2.67;;;12.20;99.90;;;;;;5061965;28;20490;-82
2021/11/19 01:39:08;;;;;;;3.90;2.67;;;12.20;99.90;;;;;;5045375;28;20040;-82
2021/11/19 01:41:41;;;;;;;4.32;2.70;;;12.20;99.90;;;;;;5063532;28;20048;-81
2021/11/19 01:44:16;;;;;;;7.05;2.47;;;12.10;99.90;;;;;;5064928;28;20032;-82
2021/11/19 01:46:44;;;;;;;4.38;2.70;;;12.10;99.90;;;;;;5054682;28;20081;-82
2021/11/19 01:49:10;;;;;;;2.88;1.90;;;12.20;99.90;;;;;;5040898;28;20074;-80
2021/11/19 01:51:49;;;;;;;5.82;2.85;;;12.20;99.90;;;;;;5065404;28;20071;-81
2021/11/19 01:54:21;;;;;;;5.78;2.55;;;12.30;99.90;;;;;;5037215;28;20481;-81
2021/11/19 01:57:25;;;;;;;3.13;2.00;;;12.20;99.90;;;;;;5055632;28;20036;-82
2021/11/19 01:59:57;;;;;;;8.27;3.15;;;12.20;99.90;;;;;;5054783;28;20498;-82
2021/11/19 02:02:38;;;;;;;4.00;2.65;;;12.20;99.90;;;;;;5052070;28;20047;-79
2021/11/19 02:05:06;;;;;;;11.73;3.58;;;12.30;99.90;;;;;;5057840;28;20059;-81
2021/11/19 02:07:44;;;;;;;18.83;3.05;;;12.30;99.90;;;;;;5066416;28;20139;-81
2021/11/19 02:10:22;;;;;;;3.85;2.40;;;12.30;99.90;;;;;;5055356;28;20078;-81
2021/11/19 02:13:09;;;;;;;4.03;2.40;;;12.30;99.90;;;;;;5063098;28;20060;-82
2021/11/19 02:15:38;;;;;;;;;;;12.30;99.90;;;;;;5057872;28;20170;-82
2021/11/19 02:18:12;;;;;;;6.05;2.60;;;12.30;99.90;;;;;;5051533;28;19916;-81
2021/11/19 02:20:43;;;;;;;4.22;2.72;;;12.30;99.90;;;;;;5047180;28;20041;-82
2021/11/19 02:23:19;;;;;;;8.88;3.05;;;12.40;99.90;;;;;;5062329;28;20131;-82
2021/11/19 02:26:01;;;;;;;2.03;1.83;;;12.30;99.90;;;;;;5052452;28;20394;-82
2021/11/19 02:28:30;;;;;;;4.63;2.65;;;12.30;99.90;;;;;;5053235;28;20044;-82
2021/11/19 02:31:08;;;;;;;7.32;3.45;;;12.30;99.90;;;;;;5053241;28;20093;-81
2021/11/19 02:33:33;;;;;;;8.70;3.20;;;12.20;99.90;;;;;;5042600;28;20044;-80
2021/11/19 02:36:06;;;;;;;2.83;2.30;;;12.20;99.90;;;;;;5058895;28;20063;-81
2021/11/19 02:38:35;;;;;;;8.43;2.97;;;12.20;99.90;;;;;;5059539;28;20052;-81
2021/11/19 02:41:01;;;;;;;4.22;2.70;;;12.20;99.90;;;;;;5071802;28;20048;-81
2021/11/19 02:43:34;;;;;;;5.35;2.88;;;12.20;99.90;;;;;;5058157;28;21685;-80
2021/11/19 02:46:00;;;;;;;7.65;3.40;;;12.20;99.90;;;;;;5041155;28;20098;-81
2021/11/19 02:48:29;;;;;;;4.00;2.72;;;12.20;99.90;;;;;;5057313;28;20040;-80
2021/11/19 02:50:57;;;;;;;5.18;3.35;;;12.20;99.90;;;;;;5050272;28;20093;-82
2021/11/19 02:53:24;;;;;;;7.20;2.85;;;12.10;99.90;;;;;;5057969;28;20553;-81
2021/11/19 02:55:52;;;;;;;6.72;3.70;;;12.10;99.90;;;;;;5058273;28;20371;-81
2021/11/19 02:58:26;;;;;;;5.60;3.13;;;12.00;99.90;;;;;;5058407;28;20032;-82
2021/11/19 03:01:14;;;;;;;5.45;2.25;;;12.00;99.90;;;;;;5073377;28;20082;-82
2021/11/19 03:03:43;;;;;;;11.38;3.80;;;11.90;99.90;;;;;;5060203;28;20435;-80
2021/11/19 03:06:09;;;;;;;6.75;4.25;;;11.90;99.90;;;;;;5060108;28;20102;-81
2021/11/19 03:08:35;;;;;;;8.05;4.03;;;11.90;99.90;;;;;;5060218;28;20064;-80
2021/11/19 03:11:03;;;;;;;2.80;2.03;;;11.80;99.90;;;;;;5060300;28;20040;-80
2021/11/19 03:13:31;;;;;;;9.00;2.90;;;11.80;99.90;;;;;;5071216;28;20072;-81
2021/11/19 03:15:57;;;;;;;3.53;2.58;;;11.80;99.90;;;;;;5059337;28;20063;-81
2021/11/19 03:18:24;;;;;;;6.18;3.55;;;11.80;99.90;;;;;;5069104;28;20048;-83
2021/11/19 03:20:54;;;;;;;7.43;3.33;;;11.80;99.90;;;;;;5059687;28;20040;-80
2021/11/19 03:23:20;;;;;;;3.78;2.78;;;11.80;99.90;;;;;;5068857;28;20048;-81
2021/11/19 03:25:47;;;;;;;6.40;3.63;;;11.80;99.90;;;;;;5066190;28;20088;-79
2021/11/19 03:28:16;;;;;;;9.10;3.38;;;11.80;99.90;;;;;;5052918;28;20041;-80
2021/11/19 03:30:45;;;;;;;8.20;3.72;;;11.70;99.90;;;;;;5061415;28;20048;-80
2021/11/19 03:33:13;;;;;;;10.80;4.03;;;11.70;99.90;;;;;;5065187;28;20052;-82
2021/11/19 03:35:39;;;;;;;3.88;3.42;;;11.70;99.90;;;;;;5057143;28;20131;-79
2021/11/19 03:38:06;;;;;;;6.15;3.40;;;11.70;99.90;;;;;;5067312;28;20098;-80
2021/11/19 03:40:36;;;;;;;2.13;2.00;;;11.70;99.90;;;;;;5063834;28;20436;-81
2021/11/19 03:43:05;;;;;;;6.68;2.97;;;11.70;99.90;;;;;;5068065;28;20044;-81
2021/11/19 03:45:36;;;;;;;8.40;4.10;;;11.60;99.90;;;;;;5070695;28;20072;-80
2021/11/19 03:48:03;;;;;;;4.75;3.00;;;11.60;99.90;;;;;;5049037;28;20044;-80
2021/11/19 03:50:37;;;;;;;5.70;4.22;;;11.60;99.90;;;;;;5074237;28;20033;-78
2021/11/19 03:53:04;;;;;;;5.90;3.75;;;11.60;99.90;;;;;;5060215;28;20062;-80
2021/11/19 03:55:32;;;;;;;4.60;2.92;;;11.60;99.90;;;;;;5065915;28;20102;-80
2021/11/19 03:57:59;;;;;;;4.28;3.35;;;11.50;99.90;;;;;;5065042;28;20036;-80
2021/11/19 04:00:38;;;;;;;6.97;2.95;;;11.50;99.90;;;;;;5062344;28;20095;-78
2021/11/19 04:03:08;;;;;;;7.47;2.83;;;11.50;99.90;;;;;;5063762;28;20068;-81
2021/11/19 04:05:34;;;;;;;3.22;2.58;;;11.50;99.90;;;;;;5063696;28;20098;-81
2021/11/19 04:08:00;;;;;;;4.20;3.08;;;11.30;99.90;;;;;;5055480;28;20110;-81
2021/11/19 04:10:26;;;;;;;;;;;11.30;99.90;;;;;;5047525;28;20128;-80
2021/11/19 04:12:52;;;;;;;4.33;3.43;;;11.30;99.90;;;;;;5058766;28;19920;-80
2021/11/19 04:15:25;;;;;;;4.40;3.28;;;11.30;99.90;;;;;;5055647;28;20106;-80
2021/11/19 04:17:51;;;;;;;9.55;3.03;;;11.20;99.90;;;;;;5057466;28;20076;-79
2021/11/19 04:20:19;;;;;;;6.65;3.65;;;11.20;99.90;;;;;;5055940;28;20502;-80
2021/11/19 04:22:45;;;;;;;17.60;4.00;;;11.20;99.90;;;;;;5046672;28;20087;-81
2021/11/19 04:25:14;;;;;;;3.35;3.03;;;11.20;99.90;;;;;;5046235;28;20064;-80
2021/11/19 04:27:40;;;;;;;5.28;2.58;;;11.20;99.90;;;;;;5053492;28;20044;-79
2021/11/19 04:30:08;;;;;;;;;;;11.20;99.90;;;;;;5043678;28;20044;-80
2021/11/19 04:32:33;;;;;;;8.50;3.83;;;11.20;99.90;;;;;;5056618;28;19920;-81
2021/11/19 04:34:59;;;;;;;6.00;3.25;;;11.20;99.90;;;;;;5057481;28;20036;-80
2021/11/19 04:37:26;;;;;;;5.65;2.42;;;11.20;99.90;;;;;;5037969;28;20121;-81
2021/11/19 04:39:52;;;;;;;5.00;3.65;;;11.20;99.90;;;;;;5055699;28;20056;-79
2021/11/19 04:42:18;;;;;;;;;;;11.30;99.90;;;;;;5071964;28;20105;-79
2021/11/19 04:44:45;;;;;;;3.80;2.55;;;11.30;99.90;;;;;;5040905;28;20285;-80
2021/11/19 04:47:11;;;;;;;16.05;3.40;;;11.30;99.90;;;;;;5054851;28;20412;-81
2021/11/19 04:49:38;;;;;;;5.47;3.60;;;11.30;99.90;;;;;;5042197;28;20076;-80
2021/11/19 04:52:07;;;;;;;3.30;2.55;;;11.30;99.90;;;;;;5040433;28;20489;-80
2021/11/19 04:54:33;;;;;;;4.75;3.50;;;11.30;99.90;;;;;;5072893;28;20078;-80
2021/11/19 04:56:59;;;;;;;7.40;3.20;;;11.30;99.90;;;;;;5056514;28;20099;-81
2021/11/19 04:59:26;;;;;;;2.88;1.92;;;11.30;99.90;;;;;;5038856;28;20531;-80
2021/11/19 05:01:55;;;;;;;4.95;2.95;;;11.30;99.90;;;;;;5057600;28;20070;-81
2021/11/19 05:04:21;;;;;;;3.35;3.05;;;11.30;99.90;;;;;;5055055;28;20462;-79
2021/11/19 05:06:48;;;;;;;8.20;2.65;;;11.30;99.90;;;;;;5072558;28;20075;-82
2021/11/19 05:09:15;;;;;;;7.95;3.70;;;11.20;99.90;;;;;;5053552;28;20056;-82
2021/11/19 05:11:49;;;;;;;;;;;11.20;99.90;;;;;;5062623;28;20052;-80
2021/11/19 05:14:15;;;;;;;4.05;2.70;;;11.20;99.90;;;;;;5053217;28;19923;-81
2021/11/19 05:16:41;;;;;;;;;;;11.30;99.90;;;;;;5057325;28;20086;-81
2021/11/19 05:19:07;;;;;;;11.25;3.88;;;11.30;99.90;;;;;;5055283;28;19920;-80
2021/11/19 05:21:33;;;;;;;12.73;4.25;;;11.30;99.90;;;;;;5061966;28;20047;-80
2021/11/19 05:24:00;;;;;;;6.90;3.78;;;11.30;99.90;;;;;;5058023;28;20076;-81
2021/11/19 05:26:28;;;;;;;4.38;3.17;;;11.40;99.90;;;;;;5060641;28;20056;-80
2021/11/19 05:28:55;;;;;;;7.63;3.00;;;11.30;99.90;;;;;;5059675;28;20032;-81
2021/11/19 05:31:22;;;;;;;18.08;4.20;;;11.40;99.90;;;;;;5057251;28;20087;-80
2021/11/19 05:33:47;;;;;;;7.00;4.93;;;11.40;99.90;;;;;;5056102;28;20469;-80
2021/11/19 05:36:14;;;;;;;4.38;3.95;;;11.40;99.90;;;;;;5054951;28;20052;-79
2021/11/19 05:38:40;;;;;;;;;;;11.40;99.90;;;;;;5058925;28;20043;-78
2021/11/19 05:41:08;;;;;;;6.87;3.37;;;11.40;99.90;;;;;;5048175;28;19923;-80
2021/11/19 05:43:36;;;;;;;10.13;3.97;;;11.40;99.90;;;;;;5050556;28;20051;-80
2021/11/19 05:46:02;;;;;;;7.03;3.33;;;11.40;99.90;;;;;;5048305;28;20075;-81
2021/11/19 05:48:28;;;;;;;3.15;2.70;;;11.40;99.90;;;;;;5064682;28;20044;-78
2021/11/19 05:50:54;;;;;;;10.27;4.15;;;11.30;99.90;;;;;;5037700;28;20370;-79
2021/11/19 05:53:20;;;;;;;6.80;3.58;;;11.30;99.90;;;;;;5033066;28;21639;-79
2021/11/19 05:55:47;;;;;;;7.88;3.55;;;11.30;99.90;;;;;;5037326;28;20047;-80
2021/11/19 05:58:15;;;;;;;12.80;4.15;;;11.30;99.90;;;;;;5053799;28;20070;-80
2021/11/19 06:00:50;;;;;;;10.77;3.92;;;11.30;99.90;;;;;;5055387;28;20166;-78
2021/11/19 06:03:16;;;;;;;9.02;3.03;;;11.30;99.90;;;;;;5056107;28;20089;-78
2021/11/19 06:05:42;;;;;;;;;;;11.40;99.90;;;;;;5056167;28;20106;-80
2021/11/19 06:08:08;;;;;;;5.22;3.58;;;11.40;99.90;;;;;;5035679;28;20362;-79
2021/11/19 06:10:40;;;;;;;4.28;3.03;;;11.40;99.90;;;;;;5052872;28;20108;-80
2021/11/19 06:13:13;;;;;;;4.35;3.47;;;11.40;99.90;;;;;;5062171;28;20070;-80
2021/11/19 06:15:44;;;;;;;6.43;3.53;;;11.50;99.90;;;;;;5049498;28;20451;-80
2021/11/19 06:18:14;;;;;;;17.02;4.25;;;11.40;99.90;;;;;;5056524;28;20102;-81
2021/11/19 06:20:48;;;;;;;5.28;3.15;;;11.40;99.90;;;;;;5055206;28;20059;-81
2021/11/19 06:23:18;;;;;;;3.38;2.45;;;11.40;99.90;;;;;;5050329;28;20044;-79
2021/11/19 06:25:46;;;;;;;4.25;2.83;;;11.40;99.90;;;;;;5068309;28;20044;-80
2021/11/19 06:28:17;;;;;;;6.60;2.92;;;11.50;99.90;;;;;;5048628;28;20050;-81
2021/11/19 06:30:42;;;;;;;8.57;2.72;;;11.40;99.90;;;;;;5059784;28;20048;-82
2021/11/19 06:33:09;;;;;;;3.45;2.42;;;11.40;99.90;;;;;;5069281;28;20048;-81
2021/11/19 06:35:35;;;;;;;;;;;11.40;99.90;;;;;;5071836;28;20049;-80
2021/11/19 06:38:01;;;;;;;2.28;1.55;;;11.40;99.90;;;;;;5061274;28;19951;-82
2021/11/19 06:40:31;;;;;;;15.20;4.68;;;11.50;99.90;;;;;;5039145;28;20040;-80
2021/11/19 06:42:57;;;;;;;6.65;2.30;;;11.50;99.90;;;;;;5063924;28;20045;-80
2021/11/19 06:45:25;;;;;;;11.48;3.97;;;11.50;99.90;;;;;;5069922;28;20483;-82
2021/11/19 06:47:51;;;;;;;3.60;2.42;;;11.50;99.90;;;;;;5053459;28;20069;-80
2021/11/19 06:50:19;;;;;;;3.85;2.28;;;11.50;99.90;;;;;;5068450;28;20432;-80
2021/11/19 06:52:45;;;;;;;5.95;2.38;;;11.50;99.90;;;;;;5054854;28;20048;-81
2021/11/19 06:55:13;;;;;;;4.97;3.17;;;11.50;99.90;;;;;;5054569;28;20086;-81
2021/11/19 06:57:39;;;;;;;5.20;2.53;;;11.50;99.90;;;;;;5055646;28;20052;-82
2021/11/19 07:00:11;;;;;;;5.25;2.83;;;11.50;99.90;;;;;;5071696;28;20048;-81
2021/11/19 07:02:37;;;;;;;6.47;2.72;;;11.50;99.90;;;;;;5058214;28;20051;-80
2021/11/19 07:05:04;;;;;;;4.93;3.28;;;11.50;99.90;;;;;;5056848;28;20416;-80
2021/11/19 07:07:30;;;;;;;3.47;2.88;;;11.50;99.90;;;;;;5056082;28;20056;-81
2021/11/19 07:09:56;;;;;;;3.85;2.22;;;11.50;99.90;;;;;;5050906;28;20512;-81
2021/11/19 07:12:22;;;;;;;4.90;2.65;;;11.50;99.90;;;;;;5056384;28;20050;-82
2021/11/19 07:14:48;;;;;;;3.85;3.08;;;11.50;99.90;;;;;;5056492;28;20119;-80
2021/11/19 07:17:14;;;;;;;;;;;11.50;99.90;;;;;;5054017;28;20040;-79
2021/11/19 07:19:41;;;;;;;3.13;1.88;;;11.60;99.90;;;;;;5055401;28;19995;-81
2021/11/19 07:22:07;;;;;;;9.40;3.50;;;11.60;99.90;;;;;;5060527;28;20044;-79
2021/11/19 07:24:35;;;;;;;5.90;2.45;;;11.50;99.90;;;;;;5022228;28;20852;-82
2021/11/19 07:27:02;;;;;;;3.20;2.42;;;11.50;99.90;;;;;;5047891;28;20045;-81
2021/11/19 07:29:28;;;;;;;;;;;11.50;99.90;;;;;;5062633;28;20093;-81
2021/11/19 07:31:53;;;;;;;6.35;3.20;;;11.50;99.90;;;;;;5057701;28;19920;-81
2021/11/19 07:34:20;;;;;;;6.45;2.83;;;11.60;99.90;;;;;;5061360;28;20040;-81
2021/11/19 07:36:45;;;;;;;;;;;11.60;99.90;;;;;;5064406;28;20083;-79
2021/11/19 07:39:12;;;;;;;8.27;3.10;;;11.60;99.90;;;;;;5063171;28;19959;-81
2021/11/19 07:41:38;;;;;;;8.18;3.90;;;11.70;99.90;;;;;;5057952;28;20111;-80
2021/11/19 07:44:05;;;;;;;2.30;2.10;;;11.70;99.90;;;;;;5058097;28;20541;-81
2021/11/19 07:46:33;;;;;;;7.82;1.73;;;11.70;99.90;;;;;;5060342;28;20072;-81
2021/11/19 07:48:59;;;;;;;4.80;2.80;;;11.70;99.90;;;;;;5066499;28;20048;-81
2021/11/19 07:51:27;;;;;;;;;;;11.70;99.90;;;;;;5038405;28;20044;-80
2021/11/19 07:53:53;;;;;;;6.32;2.10;;;11.70;99.90;;;;;;5061234;28;19942;-80
2021/11/19 07:56:27;;;;;;;3.65;2.00;;;11.70;99.90;;;;;;5056129;28;20054;-82
2021/11/19 07:58:53;;;;;;;2.97;2.10;;;11.70;99.90;;;;;;5069351;28;20714;-80
2021/11/19 08:01:18;;;;;;;3.97;2.13;;;11.80;99.90;;;;;;5048546;28;20111;-81
2021/11/19 08:03:44;;;;;;;3.80;1.92;;;11.80;99.90;;;;;;5070307;28;20040;-80
2021/11/19 08:06:10;;;;;;;3.05;2.17;;;11.80;99.90;;;;;;5050116;28;20087;-79
2021/11/19 08:08:38;;;;;;;4.28;2.28;;;11.80;99.90;;;;;;5074427;28;20181;-79
2021/11/19 08:11:07;;;;;;;2.83;1.23;;;11.90;99.90;;;;;;5072814;28;20080;-81
2021/11/19 08:13:33;;;;;;;2.90;1.67;;;11.80;99.90;;;;;;5062576;28;20036;-79
2021/11/19 08:15:59;;;;;;;;;;;11.90;99.90;;;;;;5063580;28;20049;-80
2021/11/19 08:18:29;;;;;;;2.63;1.73;;;11.90;99.90;;;;;;5066119;28;19922;-80
2021/11/19 08:20:57;;;;;;;1.33;1.13;;;11.90;99.90;;;;;;5055835;28;20486;-81
2021/11/19 08:23:26;;;;;;;2.03;1.30;;;11.90;99.90;;;;;;5040603;28;20123;-81
2021/11/19 08:25:52;;;;;;;6.00;2.03;;;11.90;99.90;;;;;;5074089;28;20047;-81
2021/11/19 08:28:18;;;;;;;;;;;11.90;99.90;;;;;;5066509;28;20048;-82
2021/11/19 08:30:47;;;;;;;1.87;1.17;;;12.00;99.90;;;;;;5049427;28;19916;-81
2021/11/19 08:33:14;;;;;;;4.10;1.90;;;12.00;99.90;;;;;;5057516;28;20409;-80
2021/11/19 08:35:42;;;;;;;4.82;1.70;;;12.00;99.90;;;;;;5073622;28;20045;-80
2021/11/19 08:38:10;;;;;;;1.80;1.33;;;12.00;99.90;;;;;;5057963;28;20044;-80
2021/11/19 08:40:43;;;;;;;1.70;1.30;;;12.00;99.90;;;;;;5064031;28;20165;-80
2021/11/19 08:43:11;;;;;;;6.35;1.85;;;12.00;99.90;;;;;;5073684;28;20041;-81
2021/11/19 08:45:37;;;;;;;5.20;1.38;;;12.00;99.90;;;;;;5050308;28;20071;-79
2021/11/19 08:48:03;;;;;;;1.73;1.55;;;12.00;99.90;;;;;;5056722;28;20556;-80
2021/11/19 08:50:31;;;;;;;2.08;1.60;;;12.00;99.90;;;;;;5073562;28;20397;-80
2021/11/19 08:52:59;;;;;;;1.65;1.23;;;12.00;99.90;;;;;;5056139;28;20044;-80
2021/11/19 08:55:26;;;;;;;1.88;1.08;;;11.90;99.90;;;;;;5050873;28;20040;-80
2021/11/19 08:57:53;;;;;;;3.85;1.65;;;11.90;99.90;;;;;;5064570;28;20119;-81
2021/11/19 09:00:26;;;;;;;3.15;1.27;;;11.90;99.90;;;;;;5073471;28;20036;-80
2021/11/19 09:02:55;;;;;;;6.05;2.85;;;11.90;99.90;;;;;;5040896;28;20044;-78
2021/11/19 09:05:22;;;;;;;1.00;0.90;;;11.80;99.90;;;;;;5065073;28;20506;-77
2021/11/19 09:07:47;;;;;;;2.88;1.73;;;11.80;99.90;;;;;;5039008;28;20452;-78
2021/11/19 09:10:15;;;;;;;1.85;1.25;;;11.80;99.90;;;;;;5041759;28;20063;-79
2021/11/19 09:12:42;;;;;;;2.00;1.42;;;11.90;99.90;;;;;;5051801;28;20040;-77
2021/11/19 09:15:10;;;;;;;3.95;1.92;;;11.90;99.90;;;;;;5048089;28;20055;-79
2021/11/19 09:18:12;;;;;;;2.38;1.35;;;12.10;99.90;;;;;;5052399;28;20366;-79
2021/11/19 09:20:53;;;;;;;2.20;1.55;;;12.20;99.90;;;;;;5069016;28;20037;-78
2021/11/19 09:23:25;;;;;;;1.52;1.27;;;12.20;99.90;;;;;;5052627;28;20036;-79
2021/11/19 09:25:53;;;;;;;4.85;1.80;;;12.20;99.90;;;;;;5039621;28;20044;-79
2021/11/19 09:28:21;;;;;;;3.00;1.52;;;12.20;99.90;;;;;;5053970;28;20044;-79
2021/11/19 09:31:02;;;;;;;2.88;1.70;;;12.20;99.90;;;;;;5053934;28;20041;-78
2021/11/19 09:33:29;;;;;;;1.25;1.15;;;12.10;99.90;;;;;;5069998;28;20044;-79
2021/11/19 09:35:56;;;;;;;3.40;2.00;;;12.20;99.90;;;;;;5055260;28;20478;-80
2021/11/19 09:38:23;;;;;;;3.13;1.55;;;12.20;99.90;;;;;;5037218;28;20044;-79
2021/11/19 09:41:25;;;;;;;2.95;1.33;;;12.20;99.90;;;;;;5052391;28;20059;-79
2021/11/19 09:44:03;;;;;;;2.20;1.67;;;12.20;99.90;;;;;;5052503;28;20049;-79
2021/11/19 09:46:40;;;;;;;6.82;1.52;;;12.20;99.90;;;;;;5049046;28;20114;-79
2021/11/19 09:49:24;;;;;;;2.80;1.17;;;12.20;99.90;;;;;;5053651;28;20055;-76
2021/11/19 09:52:27;;;;;;;2.25;1.45;;;12.20;99.90;;;;;;5048542;28;20048;-80
2021/11/19 09:55:14;;;;;;;5.82;1.73;;;12.20;99.90;;;;;;5051761;28;20092;-80
2021/11/19 09:58:05;;;;;;;16.67;3.15;;;12.20;99.90;;;;;;5053219;28;20065;-78
2021/11/19 10:00:48;;;;;;;2.95;1.63;;;12.30;99.90;;;;;;5054100;28;20055;-78
2021/11/19 10:03:44;;;;;;;2.55;1.45;;;12.40;99.90;;;;;;5036067;28;20045;-81
2021/11/19 10:06:33;;;;;;;2.15;1.70;;;12.50;99.90;;;;;;5033753;28;20470;-78
2021/11/19 10:09:04;;;;;;;2.22;1.40;;;12.60;99.90;;;;;;5007131;28;20060;-79
2021/11/19 10:11:48;;;;;;;8.15;2.55;;;12.70;99.90;;;;;;5068448;28;20110;-80
2021/11/19 10:14:23;;;;;;;3.35;1.63;;;12.60;99.90;;;;;;5051529;28;20044;-77
2021/11/19 10:17:15;;;;;;;2.90;1.38;;;12.60;99.90;;;;;;5046630;28;20151;-78
2021/11/19 10:19:54;;;;;;;2.75;1.77;;;12.60;99.90;;;;;;5052515;28;20048;-80
2021/11/19 10:22:20;;;;;;;4.05;1.15;;;12.50;99.90;;;;;;5071415;28;20051;-80
2021/11/19 10:24:51;;;;;;;3.45;1.50;;;12.40;99.90;;;;;;5053601;28;20040;-77
2021/11/19 10:27:30;;;;;;;1.10;1.00;;;12.40;99.90;;;;;;5052238;28;20413;-80
2021/11/19 10:30:16;;;;;;;3.30;2.30;;;12.40;99.90;;;;;;5028716;28;20040;-77
2021/11/19 10:32:42;;;;;;;3.08;1.20;;;12.40;99.90;;;;;;5047077;28;20474;-79
2021/11/19 10:35:26;;;;;;;22.10;2.25;;;12.30;99.90;;;;;;5053820;28;20051;-79
2021/11/19 10:38:11;;;;;;;2.20;1.38;;;12.30;99.90;;;;;;5052373;28;20383;-77
2021/11/19 10:40:58;;;;;;;1.20;1.10;;;12.30;99.90;;;;;;5051408;28;20044;-76
2021/11/19 10:43:48;;;;;;;3.15;1.60;;;12.30;99.90;;;;;;5051256;28;20051;-78
2021/11/19 10:46:52;;;;;;;5.57;2.13;;;12.40;99.90;;;;;;5052915;28;20040;-78
2021/11/19 10:50:05;;;;;;;1.20;0.90;;;12.50;99.90;;;;;;5053522;28;20076;-79
2021/11/19 10:53:09;;;;;;;2.08;1.80;;;12.60;99.90;;;;;;4985730;28;20055;-79
2021/11/19 10:56:09;;;;;;;3.90;1.70;;;12.70;99.90;;;;;;5056535;28;20405;-79
2021/11/19 10:58:45;;;;;;;6.03;1.55;;;12.80;99.90;;;;;;5057038;28;20052;-78
2021/11/19 11:01:40;;;;;;;2.65;1.38;;;12.80;99.90;;;;;;5051247;28;20040;-81
2021/11/19 11:04:19;;;;;;;3.70;1.95;;;12.80;99.90;;;;;;5055835;28;20094;-79
2021/11/19 11:06:54;;;;;;;1.45;1.13;;;12.90;99.90;;;;;;5056111;28;20047;-79
2021/11/19 11:09:34;;;;;;;5.03;1.92;;;13.00;99.90;;;;;;5053144;28;20525;-79
2021/11/19 11:12:11;;;;;;;8.38;1.45;;;13.00;99.90;;;;;;5052587;28;20055;-79
2021/11/19 11:14:40;;;;;;;4.28;1.65;;;13.10;99.90;;;;;;5051443;28;21469;-80
2021/11/19 11:17:27;;;;;;;4.30;1.95;;;13.10;99.90;;;;;;5056065;28;20041;-79
2021/11/19 11:19:58;;;;;;;;;;;13.20;99.90;;;;;;5074319;28;20047;-80
2021/11/19 11:22:31;;;;;;;2.22;1.45;;;13.20;99.90;;;;;;5057810;28;19920;-80
2021/11/19 11:25:11;;;;;;;6.00;1.92;;;13.20;99.90;;;;;;5075389;28;20055;-77
2021/11/19 11:27:59;;;;;;;1.90;1.38;;;13.20;99.90;;;;;;5056467;28;20109;-80
2021/11/19 11:30:43;;;;;;;5.65;1.73;;;13.20;99.90;;;;;;5057198;28;20465;-77
2021/11/19 11:33:23;;;;;;;3.53;1.52;;;13.10;99.90;;;;;;5052573;28;20389;-80
2021/11/19 11:36:11;;;;;;;5.85;2.17;;;13.10;99.90;;;;;;5055693;28;20056;-79
2021/11/19 11:38:51;;;;;;;8.55;1.20;;;13.00;99.90;;;;;;5053087;28;20101;-78
2021/11/19 11:41:25;;;;;;;2.63;1.35;;;13.10;99.90;;;;;;5053464;28;20449;-78
2021/11/19 11:44:13;;;;;;;1.25;0.85;;;13.10;99.90;;;;;;5051353;28;20097;-79
2021/11/19 11:46:48;;;;;;;1.90;1.00;;;13.20;99.90;;;;;;5055567;28;20106;-77
2021/11/19 11:49:29;;;;;;;6.90;1.50;;;13.20;99.90;;;;;;5057490;28;20051;-78
2021/11/19 11:52:28;;;;;;;6.40;1.13;;;13.40;99.90;;;;;;5069122;28;20144;-78
2021/11/19 11:55:02;;;;;;;4.80;1.27;;;13.40;99.90;;;;;;5055918;28;20116;-78
2021/11/19 11:57:41;;;;;;;1.67;1.13;;;13.50;99.90;;;;;;5055293;28;20044;-80
2021/11/19 12:00:25;;;;;;;4.03;1.45;;;13.50;99.90;;;;;;5074182;28;20133;-77
2021/11/19 12:03:02;;;;;;;1.60;1.08;;;13.50;99.90;;;;;;5054262;28;20085;-78
2021/11/19 12:05:39;;;;;;;2.38;1.30;;;13.40;99.90;;;;;;5073095;28;20083;-77
2021/11/19 12:08:12;;;;;;;7.45;1.67;;;13.40;99.90;;;;;;5065368;28;20051;-78
2021/11/19 12:11:18;;;;;;;1.20;0.90;;;13.40;99.90;;;;;;5055595;28;20041;-78
2021/11/19 12:13:55;;;;;;;1.20;1.10;;;13.40;99.90;;;;;;5055650;28;20048;-79
2021/11/19 12:17:09;;;;;;;1.70;1.40;;;13.50;99.90;;;;;;5055854;28;20040;-79
2021/11/19 12:20:05;;;;;;;3.83;1.65;;;13.60;99.90;;;;;;5055274;28;20123;-77
2021/11/19 12:22:40;;;;;;;0.93;0.90;;;13.60;99.90;;;;;;5014375;28;20165;-79
2021/11/19 12:25:25;;;;;;;1.63;1.15;;;13.70;99.90;;;;;;5076843;28;20079;-76
2021/11/19 12:28:03;;;;;;;4.32;1.20;;;13.70;99.90;;;;;;5052880;28;20036;-79
2021/11/19 12:30:44;;;;;;;1.27;0.98;;;13.70;99.90;;;;;;5055544;28;20067;-80
2021/11/19 12:33:24;;;;;;;0.98;0.90;;;13.70;99.90;;;;;;5030117;28;20485;-78
2021/11/19 12:36:06;;;;;;;2.75;1.30;;;13.50;99.90;;;;;;5072825;28;20446;-79
2021/11/19 12:38:40;;;;;;;1.88;1.05;;;13.50;99.90;;;;;;5072853;28;20636;-78
2021/11/19 12:41:14;;;;;;;2.10;0.95;;;13.50;99.90;;;;;;5055701;28;20047;-77
2021/11/19 12:44:16;;;;;;;6.78;1.95;;;13.50;99.90;;;;;;5056065;28;20102;-78
2021/11/19 12:46:44;;;;;;;2.25;1.48;;;13.50;99.90;;;;;;5054428;28;20151;-78
2021/11/19 12:49:48;;;;;;;3.40;1.50;;;13.60;99.90;;;;;;5055494;28;20049;-77
2021/11/19 12:52:38;;;;;;;1.77;1.02;;;13.50;99.90;;;;;;5057972;28;20097;-78
2021/11/19 12:55:33;;;;;;;6.75;1.63;;;13.50;99.90;;;;;;5042916;28;20052;-79
2021/11/19 12:58:20;;;;;;;1.23;0.98;;;13.40;99.90;;;;;;5049444;28;20174;-78
2021/11/19 13:01:20;;;;;;;3.22;1.33;;;13.30;99.90;;;;;;5053660;28;20120;-77
2021/11/19 13:04:27;;;;;;;1.90;1.10;;;13.20;99.90;;;;;;5033732;28;20052;-79
2021/11/19 13:07:31;;;;;;;2.20;1.05;;;13.20;99.90;;;;;;5048746;28;20044;-80
2021/11/19 13:10:23;;;;;;;2.83;1.67;;;13.20;99.90;;;;;;5036595;28;20440;-79
2021/11/19 13:13:20;;;;;;;2.05;1.17;;;13.20;99.90;;;;;;5055497;28;20044;-78
2021/11/19 13:15:46;;;;;;;2.05;1.15;;;13.30;99.90;;;;;;5070803;28;20109;-81
2021/11/19 13:18:14;;;;;;;10.00;1.58;;;13.40;99.90;;;;;;5054473;28;20473;-80